createdAt,value
2018-12-27T00:01:22.473Z,54.25
2018-12-27T00:03:48.410Z,53.97
2018-12-27T00:06:17.791Z,54.11
2018-12-27T00:08:46.492Z,54.24
2018-12-27T00:11:15.466Z,54.17
2018-12-27T00:13:41.355Z,54.11
2018-12-27T00:16:10.414Z,54.38
2018-12-27T00:18:36.310Z,54.13
2018-12-27T00:21:02.235Z,53.78
2018-12-27T00:23:31.194Z,54.30
2018-12-27T00:26:00.141Z,54.33
2018-12-27T00:28:29.085Z,54.25
2018-12-27T00:30:58.203Z,54.16
2018-12-27T00:33:27.172Z,54.14
2018-12-27T00:35:56.410Z,54.36
2018-12-27T00:38:22.354Z,54.18
2018-12-27T00:40:51.046Z,54.41
2018-12-27T00:43:20.023Z,54.24
2018-12-27T00:45:49.100Z,54.36
2018-12-27T00:48:18.014Z,54.32
2018-12-27T00:50:47.475Z,54.31
2018-12-27T00:53:13.408Z,54.09
2018-12-27T00:55:39.314Z,54.36
2018-12-27T00:58:08.239Z,54.07
2018-12-27T01:00:37.149Z,54.28
2018-12-27T01:03:11.043Z,54.06
2018-12-27T01:05:37.032Z,54.21
2018-12-27T01:08:05.957Z,54.09
2018-12-27T01:10:35.118Z,54.20
2018-12-27T01:13:04.026Z,54.37
2018-12-27T01:15:33.046Z,54.42
2018-12-27T01:18:01.710Z,54.15
2018-12-27T01:20:27.657Z,53.79
2018-12-27T01:22:56.327Z,54.31
2018-12-27T01:25:25.844Z,54.10
2018-12-27T01:27:54.645Z,54.48
2018-12-27T01:30:20.539Z,54.31
2018-12-27T01:32:49.504Z,54.49
2018-12-27T01:35:18.610Z,54.27
2018-12-27T01:37:47.529Z,54.15
2018-12-27T01:40:16.669Z,54.25
2018-12-27T01:42:42.567Z,54.28
2018-12-27T01:45:11.648Z,53.92
2018-12-27T01:47:40.561Z,54.42
2018-12-27T01:50:09.738Z,54.13
2018-12-27T01:52:38.669Z,54.44
2018-12-27T01:55:05.229Z,53.68
2018-12-27T01:57:34.135Z,54.05
2018-12-27T02:00:03.305Z,54.09
2018-12-27T02:02:32.218Z,54.15
2018-12-27T02:05:01.304Z,54.10
2018-12-27T02:07:27.203Z,54.59
2018-12-27T02:09:56.358Z,54.33
2018-12-27T02:12:25.252Z,54.15
2018-12-27T02:14:57.551Z,54.41
2018-12-27T02:17:26.469Z,54.41
2018-12-27T02:19:55.401Z,54.56
2018-12-27T02:22:21.346Z,54.51
2018-12-27T02:24:50.215Z,54.38
2018-12-27T02:27:19.134Z,54.31
2018-12-27T02:29:48.451Z,54.50
2018-12-27T02:32:17.146Z,54.56
2018-12-27T02:34:46.085Z,54.41
2018-12-27T02:37:11.968Z,54.41
2018-12-27T02:39:40.956Z,54.55
2018-12-27T02:42:09.922Z,54.54
2018-12-27T02:44:38.848Z,54.54
2018-12-27T02:47:07.762Z,54.41
2018-12-27T02:49:33.655Z,54.48
2018-12-27T02:51:59.571Z,54.37
2018-12-27T02:54:25.465Z,54.51
2018-12-27T02:56:51.361Z,54.47
2018-12-27T02:59:17.306Z,54.36
2018-12-27T03:01:46.449Z,54.62
2018-12-27T03:04:12.425Z,54.29
2018-12-27T03:06:38.336Z,54.64
2018-12-27T03:09:07.363Z,54.32
2018-12-27T03:11:33.642Z,54.31
2018-12-27T03:14:02.395Z,54.50
2018-12-27T03:16:31.311Z,53.89
2018-12-27T03:19:00.352Z,54.49
2018-12-27T03:21:26.241Z,54.54
2018-12-27T03:23:55.283Z,54.40
2018-12-27T03:26:27.334Z,54.44
2018-12-27T03:28:53.227Z,54.42
2018-12-27T03:31:22.187Z,54.08
2018-12-27T03:33:52.751Z,54.33
2018-12-27T03:36:18.886Z,54.62
2018-12-27T03:38:47.585Z,54.39
2018-12-27T03:41:16.507Z,54.45
2018-12-27T03:43:45.442Z,54.39
2018-12-27T03:46:11.333Z,54.50
2018-12-27T03:48:40.300Z,54.49
2018-12-27T03:51:09.217Z,53.96
2018-12-27T03:53:35.538Z,54.69
2018-12-27T03:56:04.198Z,54.38
2018-12-27T03:58:33.287Z,54.69
2018-12-27T04:01:02.203Z,54.51
2018-12-27T04:03:28.161Z,54.38
2018-12-27T04:05:56.928Z,54.46
2018-12-27T04:08:25.848Z,54.52
2018-12-27T04:10:52.266Z,54.55
2018-12-27T04:13:18.573Z,54.31
2018-12-27T04:15:47.468Z,54.34
2018-12-27T04:18:16.512Z,54.37
2018-12-27T04:20:42.408Z,54.49
2018-12-27T04:23:13.938Z,54.28
2018-12-27T04:25:42.669Z,54.22
2018-12-27T04:28:11.766Z,54.44
2018-12-27T04:30:37.660Z,54.44
2018-12-27T04:33:08.475Z,54.23
2018-12-27T04:35:39.074Z,54.44
2018-12-27T04:38:04.968Z,54.25
2018-12-27T04:40:33.892Z,53.96
2018-12-27T04:43:02.991Z,54.06
2018-12-27T04:45:31.939Z,54.11
2018-12-27T04:48:01.093Z,54.13
2018-12-27T04:50:26.984Z,54.22
2018-12-27T04:52:56.085Z,54.02
2018-12-27T04:55:22.950Z,53.99
2018-12-27T04:57:51.865Z,53.95
2018-12-27T05:00:17.751Z,54.06
2018-12-27T05:02:43.649Z,53.98
2018-12-27T05:05:09.542Z,53.80
2018-12-27T05:07:35.439Z,53.76
2018-12-27T05:10:04.096Z,53.80
2018-12-27T05:12:30.000Z,53.74
2018-12-27T05:14:58.898Z,53.75
2018-12-27T05:17:27.878Z,53.43
2018-12-27T05:19:56.297Z,53.62
2018-12-27T05:22:22.186Z,52.79
2018-12-27T05:24:51.090Z,52.83
2018-12-27T05:27:20.211Z,52.88
2018-12-27T05:29:46.113Z,53.15
2018-12-27T05:32:15.543Z,52.87
2018-12-27T05:34:44.236Z,53.34
2018-12-27T05:37:10.137Z,52.98
2018-12-27T05:39:39.067Z,53.06
2018-12-27T05:42:07.990Z,53.56
2018-12-27T05:44:37.060Z,53.20
2018-12-27T05:47:06.161Z,52.96
2018-12-27T05:49:32.066Z,53.36
2018-12-27T05:52:01.034Z,53.36
2018-12-27T05:54:26.975Z,53.02
2018-12-27T05:56:55.923Z,53.04
2018-12-27T05:59:24.823Z,53.23
2018-12-27T06:01:55.821Z,53.26
2018-12-27T06:04:24.763Z,53.10
2018-12-27T06:06:54.270Z,53.25
2018-12-27T06:09:20.636Z,53.00
2018-12-27T06:11:46.528Z,53.23
2018-12-27T06:14:12.462Z,52.97
2018-12-27T06:16:38.462Z,53.13
2018-12-27T06:19:04.370Z,53.06
2018-12-27T06:21:30.266Z,52.85
2018-12-27T06:23:56.147Z,52.99
2018-12-27T06:26:22.089Z,53.30
2018-12-27T06:28:48.031Z,53.10
2018-12-27T06:31:16.704Z,52.84
2018-12-27T06:33:45.746Z,53.02
2018-12-27T06:36:12.199Z,52.64
2018-12-27T06:38:41.377Z,52.87
2018-12-27T06:41:10.302Z,53.02
2018-12-27T06:43:39.382Z,53.04
2018-12-27T06:46:05.281Z,53.05
2018-12-27T06:48:34.483Z,52.76
2018-12-27T06:51:03.403Z,52.88
2018-12-27T06:53:29.291Z,52.44
2018-12-27T06:55:55.224Z,52.97
2018-12-27T06:58:27.137Z,52.56
2018-12-27T07:00:56.115Z,52.45
2018-12-27T07:03:22.008Z,52.79
2018-12-27T07:05:50.966Z,52.70
2018-12-27T07:08:16.880Z,52.73
2018-12-27T07:10:45.821Z,52.52
2018-12-27T07:13:15.127Z,52.46
2018-12-27T07:15:43.821Z,52.57
2018-12-27T07:18:12.730Z,52.28
2018-12-27T07:20:41.694Z,52.15
2018-12-27T07:23:10.705Z,52.54
2018-12-27T07:25:39.442Z,52.52
2018-12-27T07:28:05.374Z,52.36
2018-12-27T07:30:31.258Z,52.13
2018-12-27T07:33:00.243Z,52.33
2018-12-27T07:35:29.185Z,51.76
2018-12-27T07:37:56.078Z,52.03
2018-12-27T07:40:25.096Z,52.28
2018-12-27T07:42:56.985Z,52.38
2018-12-27T07:45:25.904Z,51.56
2018-12-27T07:47:54.849Z,51.87
2018-12-27T07:50:24.159Z,51.94
2018-12-27T07:52:50.108Z,51.93
2018-12-27T07:55:16.043Z,51.92
2018-12-27T07:57:41.951Z,51.58
2018-12-27T08:00:07.846Z,51.82
2018-12-27T08:02:34.491Z,51.86
2018-12-27T08:05:04.327Z,51.86
2018-12-27T08:07:28.211Z,51.61
2018-12-27T08:09:56.534Z,51.49
2018-12-27T08:12:22.735Z,51.01
2018-12-27T08:14:51.470Z,51.17
2018-12-27T08:17:20.443Z,50.97
2018-12-27T08:19:49.154Z,50.57
2018-12-27T08:22:15.257Z,50.97
2018-12-27T08:24:41.621Z,51.09
2018-12-27T08:27:08.042Z,51.66
2018-12-27T08:29:34.496Z,50.59
2018-12-27T08:32:03.157Z,51.50
2018-12-27T08:34:29.410Z,51.24
2018-12-27T08:36:55.309Z,50.66
2018-12-27T08:39:26.029Z,51.40
2018-12-27T08:41:52.255Z,51.46
2018-12-27T08:44:21.171Z,51.14
2018-12-27T08:46:50.174Z,50.61
2018-12-27T08:49:16.216Z,51.25
2018-12-27T08:51:42.532Z,51.25
2018-12-27T08:54:08.431Z,50.30
2018-12-27T08:56:34.337Z,51.31
2018-12-27T08:59:00.233Z,50.95
2018-12-27T09:01:26.149Z,50.60
2018-12-27T09:03:52.085Z,51.33
2018-12-27T09:06:17.982Z,50.72
2018-12-27T09:08:44.241Z,51.15
2018-12-27T09:11:10.609Z,50.49
2018-12-27T09:13:36.551Z,50.67
2018-12-27T09:16:05.272Z,51.10
2018-12-27T09:18:31.180Z,50.70
2018-12-27T09:20:57.064Z,50.67
2018-12-27T09:23:23.355Z,51.20
2018-12-27T09:25:52.227Z,51.12
2018-12-27T09:28:18.173Z,49.99
2018-12-27T09:30:44.072Z,50.84
2018-12-27T09:33:09.963Z,50.86
2018-12-27T09:35:35.860Z,50.03
2018-12-27T09:38:01.787Z,51.15
2018-12-27T09:40:27.674Z,51.28
2018-12-27T09:42:55.342Z,50.34
2018-12-27T09:45:27.527Z,50.61
2018-12-27T09:47:54.805Z,50.81
2018-12-27T09:50:24.843Z,50.93
2018-12-27T09:52:50.750Z,51.02
2018-12-27T09:55:19.437Z,50.76
2018-12-27T09:57:48.367Z,51.00
2018-12-27T10:00:17.616Z,50.71
2018-12-27T10:02:46.296Z,51.04
2018-12-27T10:05:15.290Z,51.04
2018-12-27T10:07:44.247Z,50.72
2018-12-27T10:10:13.633Z,50.15
2018-12-27T10:12:39.533Z,50.33
2018-12-27T10:15:08.199Z,50.41
2018-12-27T10:17:34.261Z,51.31
2018-12-27T10:20:03.736Z,50.51
2018-12-27T10:22:29.684Z,50.42
2018-12-27T10:24:58.798Z,51.15
2018-12-27T10:27:27.727Z,51.07
2018-12-27T10:29:55.740Z,50.51
2018-12-27T10:32:21.630Z,51.25
2018-12-27T10:34:47.523Z,51.52
2018-12-27T10:37:13.418Z,50.64
2018-12-27T10:39:39.323Z,50.70
2018-12-27T10:42:05.244Z,50.48
2018-12-27T10:44:31.143Z,50.48
2018-12-27T10:46:57.385Z,51.14
2018-12-27T10:49:26.918Z,50.76
2018-12-27T10:51:52.829Z,50.51
2018-12-27T10:54:21.528Z,50.58
2018-12-27T10:56:47.484Z,51.30
2018-12-27T10:59:16.357Z,50.60
2018-12-27T11:01:42.265Z,51.22
2018-12-27T11:04:08.301Z,51.37
2018-12-27T11:06:37.470Z,50.66
2018-12-27T11:09:04.470Z,50.98
2018-12-27T11:11:30.367Z,50.27
2018-12-27T11:13:56.262Z,51.51
2018-12-27T11:16:22.164Z,50.65
2018-12-27T11:18:48.057Z,50.74
2018-12-27T11:21:13.963Z,51.34
2018-12-27T11:23:39.893Z,50.62
2018-12-27T11:26:08.946Z,50.84
2018-12-27T11:28:34.865Z,51.63
2018-12-27T11:31:00.806Z,51.44
2018-12-27T11:33:26.753Z,50.92
2018-12-27T11:35:56.160Z,50.75
2018-12-27T11:38:22.051Z,49.99
2018-12-27T11:40:50.748Z,51.15
2018-12-27T11:43:19.902Z,50.58
2018-12-27T11:45:48.807Z,51.68
2018-12-27T11:48:18.091Z,51.69
2018-12-27T11:50:47.213Z,51.49
2018-12-27T11:53:13.118Z,51.47
2018-12-27T11:55:39.419Z,50.87
2018-12-27T11:58:05.379Z,51.65
2018-12-27T12:00:31.279Z,51.35
2018-12-27T12:02:59.950Z,50.71
2018-12-27T12:05:25.848Z,51.38
2018-12-27T12:07:51.789Z,50.86
2018-12-27T12:10:21.031Z,51.44
2018-12-27T12:12:49.784Z,51.35
2018-12-27T12:15:15.669Z,51.12
2018-12-27T12:17:44.743Z,50.95
2018-12-27T12:20:10.637Z,51.12
2018-12-27T12:22:36.583Z,51.53
2018-12-27T12:25:05.512Z,51.35
2018-12-27T12:27:31.563Z,51.46
2018-12-27T12:30:00.483Z,51.46
2018-12-27T12:32:28.264Z,51.82
2018-12-27T12:34:56.138Z,51.14
2018-12-27T12:37:22.032Z,51.87
2018-12-27T12:39:47.942Z,51.44
2018-12-27T12:42:15.606Z,51.28
2018-12-27T12:44:41.537Z,51.65
2018-12-27T12:47:10.639Z,51.48
2018-12-27T12:49:36.576Z,51.89
2018-12-27T12:52:02.571Z,51.56
2018-12-27T12:54:28.519Z,51.42
2018-12-27T12:56:54.497Z,51.73
2018-12-27T12:59:20.401Z,51.33
2018-12-27T13:01:49.325Z,51.87
2018-12-27T13:04:16.541Z,52.11
2018-12-27T13:06:45.595Z,51.61
2018-12-27T13:09:11.519Z,51.16
2018-12-27T13:11:40.235Z,51.87
2018-12-27T13:14:09.204Z,51.74
2018-12-27T13:16:38.118Z,51.13
2018-12-27T13:19:07.036Z,51.56
2018-12-27T13:21:32.978Z,51.28
2018-12-27T13:24:01.902Z,51.35
2018-12-27T13:26:30.992Z,51.63
2018-12-27T13:28:59.912Z,51.51
2018-12-27T13:31:28.920Z,50.99
2018-12-27T13:33:54.878Z,51.41
2018-12-27T13:36:25.382Z,51.46
2018-12-27T13:38:49.512Z,51.26
2018-12-27T13:41:18.847Z,50.92
2018-12-27T13:43:47.748Z,51.53
2018-12-27T13:46:16.882Z,51.48
2018-12-27T13:48:42.772Z,51.62
2018-12-27T13:51:08.662Z,51.52
2018-12-27T13:53:34.563Z,51.69
2018-12-27T13:56:00.593Z,51.72
2018-12-27T13:58:26.510Z,51.88
2018-12-27T14:00:52.612Z,51.61
2018-12-27T14:03:18.502Z,51.30
2018-12-27T14:05:44.407Z,51.81
2018-12-27T14:08:13.333Z,52.02
2018-12-27T14:10:39.246Z,52.26
2018-12-27T14:13:05.135Z,52.46
2018-12-27T14:15:31.079Z,51.91
2018-12-27T14:17:57.013Z,51.82
2018-12-27T14:20:22.896Z,51.78
2018-12-27T14:22:48.802Z,52.10
2018-12-27T14:25:17.880Z,51.82
2018-12-27T14:27:46.823Z,51.91
2018-12-27T14:30:13.211Z,51.84
2018-12-27T14:32:39.601Z,51.69
2018-12-27T14:35:08.943Z,52.01
2018-12-27T14:37:37.660Z,52.05
2018-12-27T14:40:06.161Z,52.20
2018-12-27T14:42:32.107Z,52.00
2018-12-27T14:45:00.792Z,51.41
2018-12-27T14:47:29.774Z,52.07
2018-12-27T14:49:55.668Z,52.18
2018-12-27T14:52:25.148Z,51.88
2018-12-27T14:54:56.669Z,51.98
2018-12-27T14:57:25.440Z,52.28
2018-12-27T14:59:52.376Z,52.14
2018-12-27T15:02:18.679Z,52.06
2018-12-27T15:04:47.393Z,52.19
2018-12-27T15:07:13.357Z,52.33
2018-12-27T15:09:39.306Z,52.05
2018-12-27T15:12:05.198Z,51.95
2018-12-27T15:14:31.091Z,52.03
2018-12-27T15:16:56.998Z,51.99
2018-12-27T15:19:22.939Z,52.10
2018-12-27T15:21:48.849Z,52.04
2018-12-27T15:24:14.746Z,52.15
2018-12-27T15:26:40.696Z,52.20
2018-12-27T15:29:09.657Z,51.86
2018-12-27T15:31:35.591Z,52.28
2018-12-27T15:34:01.496Z,52.27
2018-12-27T15:36:27.403Z,52.10
2018-12-27T15:38:56.306Z,52.15
2018-12-27T15:41:22.214Z,52.14
2018-12-27T15:43:48.357Z,52.05
2018-12-27T15:46:14.265Z,51.95
2018-12-27T15:48:40.167Z,52.33
2018-12-27T15:51:06.061Z,52.39
2018-12-27T15:53:31.966Z,52.22
2018-12-27T15:56:00.862Z,52.28
2018-12-27T15:58:29.801Z,52.00
2018-12-27T16:00:58.924Z,52.17
2018-12-27T16:03:24.873Z,52.04
2018-12-27T16:05:50.770Z,51.83
2018-12-27T16:08:20.089Z,52.09
2018-12-27T16:10:48.803Z,52.36
2018-12-27T16:13:14.707Z,52.16
2018-12-27T16:15:43.798Z,52.08
2018-12-27T16:18:09.688Z,52.13
2018-12-27T16:20:35.588Z,52.10
2018-12-27T16:23:04.549Z,52.05
2018-12-27T16:25:30.451Z,52.42
2018-12-27T16:27:56.341Z,52.10
2018-12-27T16:30:22.246Z,52.15
2018-12-27T16:32:48.141Z,52.48
2018-12-27T16:35:14.378Z,52.42
2018-12-27T16:37:40.333Z,52.38
2018-12-27T16:40:06.855Z,52.15
2018-12-27T16:42:32.755Z,52.27
2018-12-27T16:44:58.648Z,52.08
2018-12-27T16:47:25.787Z,51.91
2018-12-27T16:49:51.749Z,52.15
2018-12-27T16:52:17.651Z,52.25
2018-12-27T16:54:43.587Z,52.36
2018-12-27T16:57:19.402Z,51.92
2018-12-27T16:59:40.084Z,52.30
2018-12-27T17:02:08.892Z,52.28
2018-12-27T17:04:37.561Z,52.00
2018-12-27T17:07:06.592Z,51.86
2018-12-27T17:09:32.506Z,52.06
2018-12-27T17:12:01.447Z,52.29
2018-12-27T17:14:30.313Z,52.13
2018-12-27T17:16:59.302Z,51.95
2018-12-27T17:19:25.203Z,51.95
2018-12-27T17:21:51.116Z,52.43
2018-12-27T17:24:17.027Z,52.30
2018-12-27T17:26:42.927Z,52.21
2018-12-27T17:29:11.874Z,52.02
2018-12-27T17:31:37.770Z,52.00
2018-12-27T17:34:04.093Z,52.07
2018-12-27T17:36:30.031Z,51.53
2018-12-27T17:38:55.934Z,52.28
2018-12-27T17:41:24.803Z,51.99
2018-12-27T17:43:51.085Z,52.46
2018-12-27T17:46:19.922Z,52.59
2018-12-27T17:48:48.946Z,51.92
2018-12-27T17:51:18.698Z,52.15
2018-12-27T17:53:44.614Z,52.00
2018-12-27T17:56:10.505Z,52.00
2018-12-27T17:58:36.398Z,52.20
2018-12-27T18:01:02.300Z,52.25
2018-12-27T18:03:28.177Z,51.55
2018-12-27T18:05:56.399Z,52.11
2018-12-27T18:08:25.244Z,52.10
2018-12-27T18:10:51.154Z,51.92
2018-12-27T18:13:20.225Z,52.00
2018-12-27T18:15:49.280Z,51.97
2018-12-27T18:18:15.178Z,51.65
2018-12-27T18:20:44.456Z,52.41
2018-12-27T18:23:13.732Z,51.71
2018-12-27T18:25:39.671Z,52.14
2018-12-27T18:28:08.361Z,51.63
2018-12-27T18:30:37.543Z,52.32
2018-12-27T18:33:06.857Z,52.20
2018-12-27T18:35:35.597Z,52.22
2018-12-27T18:38:04.559Z,52.17
2018-12-27T18:40:33.581Z,52.15
2018-12-27T18:42:59.735Z,52.10
2018-12-27T18:45:28.760Z,52.14
2018-12-27T18:47:54.704Z,52.09
2018-12-27T18:50:20.977Z,52.09
2018-12-27T18:52:46.903Z,52.00
2018-12-27T18:55:20.095Z,52.17
2018-12-27T18:57:46.925Z,52.12
2018-12-27T19:00:12.823Z,52.09
2018-12-27T19:02:42.330Z,52.23
2018-12-27T19:05:11.738Z,52.10
2018-12-27T19:07:44.693Z,51.53
2018-12-27T19:10:06.020Z,52.35
2018-12-27T19:13:03.133Z,52.22
2018-12-27T19:15:29.755Z,51.97
2018-12-27T19:17:58.878Z,52.23
2018-12-27T19:20:24.784Z,51.90
2018-12-27T19:22:55.340Z,51.83
2018-12-27T19:25:27.281Z,52.19
2018-12-27T19:27:55.105Z,52.05
2018-12-27T19:30:24.297Z,52.07
2018-12-27T19:32:53.235Z,51.83
2018-12-27T19:35:19.130Z,52.19
2018-12-27T19:37:51.885Z,52.01
2018-12-27T19:40:13.736Z,52.00
2018-12-27T19:42:40.005Z,52.21
2018-12-27T19:45:09.086Z,52.15
2018-12-27T19:47:38.081Z,52.07
2018-12-27T19:50:06.988Z,52.02
2018-12-27T19:52:32.953Z,52.13
2018-12-27T19:55:02.408Z,52.07
2018-12-27T19:57:31.107Z,52.07
2018-12-27T20:00:00.034Z,52.15
2018-12-27T20:02:29.000Z,52.02
2018-12-27T20:04:58.084Z,51.96
2018-12-27T20:07:27.026Z,51.97
2018-12-27T20:09:53.292Z,52.05
2018-12-27T20:12:19.547Z,51.81
2018-12-27T20:14:45.447Z,52.17
2018-12-27T20:17:11.342Z,52.23
2018-12-27T20:19:37.234Z,51.97
2018-12-27T20:22:03.574Z,51.89
2018-12-27T20:24:29.480Z,52.26
2018-12-27T20:26:55.392Z,52.32
2018-12-27T20:29:21.328Z,52.16
2018-12-27T20:31:47.230Z,52.20
2018-12-27T20:34:13.133Z,52.05
2018-12-27T20:36:39.034Z,51.96
2018-12-27T20:39:05.195Z,52.18
2018-12-27T20:41:32.050Z,52.07
2018-12-27T20:43:58.287Z,52.13
2018-12-27T20:46:30.265Z,52.12
2018-12-27T20:48:56.154Z,51.99
2018-12-27T20:51:22.494Z,51.82
2018-12-27T20:53:48.384Z,52.08
2018-12-27T20:56:14.331Z,52.23
2018-12-27T20:58:40.231Z,52.11
2018-12-27T21:01:06.173Z,51.63
2018-12-27T21:03:32.111Z,51.89
2018-12-27T21:06:00.848Z,52.27
2018-12-27T21:08:26.798Z,52.22
2018-12-27T21:10:52.696Z,52.19
2018-12-27T21:13:21.782Z,52.11
2018-12-27T21:15:47.723Z,52.29
2018-12-27T21:18:16.646Z,52.18
2018-12-27T21:20:42.539Z,52.00
2018-12-27T21:23:11.460Z,52.36
2018-12-27T21:25:37.366Z,52.28
2018-12-27T21:28:06.327Z,52.19
2018-12-27T21:30:35.393Z,52.17
2018-12-27T21:33:04.686Z,52.38
2018-12-27T21:35:33.408Z,52.26
2018-12-27T21:37:59.665Z,52.02
2018-12-27T21:40:28.904Z,52.38
2018-12-27T21:42:54.953Z,52.42
2018-12-27T21:45:20.855Z,52.42
2018-12-27T21:47:46.745Z,52.51
2018-12-27T21:50:15.758Z,52.28
2018-12-27T21:52:41.652Z,52.63
2018-12-27T21:55:10.349Z,52.30
2018-12-27T21:57:39.426Z,52.56
2018-12-27T22:00:07.017Z,52.36
2018-12-27T22:02:33.287Z,52.15
2018-12-27T22:04:59.204Z,52.13
2018-12-27T22:07:25.103Z,52.55
2018-12-27T22:09:56.590Z,52.51
2018-12-27T22:12:22.501Z,52.88
2018-12-27T22:14:48.402Z,52.48
2018-12-27T22:17:14.348Z,52.09
2018-12-27T22:19:40.255Z,52.61
2018-12-27T22:22:06.147Z,52.46
2018-12-27T22:24:35.096Z,52.40
2018-12-27T22:27:04.200Z,52.78
2018-12-27T22:29:33.572Z,52.67
2018-12-27T22:32:02.338Z,52.57
2018-12-27T22:34:28.252Z,52.51
2018-12-27T22:36:57.517Z,52.79
2018-12-27T22:39:26.498Z,52.60
2018-12-27T22:41:52.589Z,52.46
2018-12-27T22:44:18.493Z,52.61
2018-12-27T22:46:44.392Z,52.48
2018-12-27T22:49:10.296Z,52.39
2018-12-27T22:51:48.658Z,52.21
2018-12-27T22:54:18.089Z,52.91
2018-12-27T22:56:46.865Z,52.75
2018-12-27T22:59:15.788Z,52.23
2018-12-27T23:01:42.299Z,52.97
2018-12-27T23:04:08.299Z,52.69
2018-12-27T23:06:37.348Z,52.98
2018-12-27T23:09:04.145Z,52.90
2018-12-27T23:11:30.041Z,52.08
2018-12-27T23:13:56.091Z,52.74
2018-12-27T23:16:21.999Z,52.12
2018-12-27T23:18:47.893Z,52.27
2018-12-27T23:21:21.319Z,52.25
2018-12-27T23:23:50.496Z,52.47
2018-12-27T23:26:16.798Z,52.38
2018-12-27T23:28:45.947Z,52.82
2018-12-27T23:31:11.837Z,52.89
2018-12-27T23:33:40.506Z,52.54
2018-12-27T23:36:09.728Z,52.55
2018-12-27T23:38:38.763Z,51.97
2018-12-27T23:41:07.783Z,52.62
2018-12-27T23:43:33.738Z,52.32
2018-12-27T23:46:02.906Z,52.25
2018-12-27T23:48:31.544Z,52.79
2018-12-27T23:50:57.438Z,53.13
2018-12-27T23:53:23.343Z,52.50
2018-12-27T23:55:52.262Z,53.25
2018-12-27T23:58:18.163Z,52.56
